sensor_id;sensor_type;location;lat;lon;timestamp;temperature;humidity
16505;HTU21D;8365;51.030;4.696;2024-02-26T00:01:20;8.08;118.99
16505;HTU21D;8365;51.030;4.696;2024-02-26T00:03:51;8.24;118.99
16505;HTU21D;8365;51.030;4.696;2024-02-26T00:06:22;8.19;118.99
16505;HTU21D;8365;51.030;4.696;2024-02-26T00:08:53;8.11;118.99
16505;HTU21D;8365;51.030;4.696;2024-02-26T00:11:23;8.01;118.99
16505;HTU21D;8365;51.030;4.696;2024-02-26T00:13:54;8.01;118.99
16505;HTU21D;8365;51.030;4.696;2024-02-26T00:16:24;8.03;118.99
16505;HTU21D;8365;51.030;4.696;2024-02-26T00:18:55;7.94;118.99
16505;HTU21D;8365;51.030;4.696;2024-02-26T00:21:25;7.84;118.99
16505;HTU21D;8365;51.030;4.696;2024-02-26T00:23:56;7.89;118.99
16505;HTU21D;8365;51.030;4.696;2024-02-26T00:26:28;7.87;118.99
16505;HTU21D;8365;51.030;4.696;2024-02-26T00:29:01;7.91;118.99
16505;HTU21D;8365;51.030;4.696;2024-02-26T00:31:32;7.91;118.99
16505;HTU21D;8365;51.030;4.696;2024-02-26T00:34:02;7.88;118.99
16505;HTU21D;8365;51.030;4.696;2024-02-26T00:36:33;7.76;118.99
16505;HTU21D;8365;51.030;4.696;2024-02-26T00:39:03;7.68;118.99
16505;HTU21D;8365;51.030;4.696;2024-02-26T00:41:38;7.79;118.99
16505;HTU21D;8365;51.030;4.696;2024-02-26T00:44:08;7.88;118.99
16505;HTU21D;8365;51.030;4.696;2024-02-26T00:46:39;7.90;118.99
16505;HTU21D;8365;51.030;4.696;2024-02-26T00:49:09;7.77;118.99
16505;HTU21D;8365;51.030;4.696;2024-02-26T00:51:41;7.92;118.99
16505;HTU21D;8365;51.030;4.696;2024-02-26T00:54:12;7.81;118.99
16505;HTU21D;8365;51.030;4.696;2024-02-26T00:56:43;7.84;118.99
16505;HTU21D;8365;51.030;4.696;2024-02-26T00:59:13;7.84;118.99
16505;HTU21D;8365;51.030;4.696;2024-02-26T01:01:44;7.89;118.99
16505;HTU21D;8365;51.030;4.696;2024-02-26T01:04:14;7.78;118.99
16505;HTU21D;8365;51.030;4.696;2024-02-26T01:06:45;7.77;118.99
16505;HTU21D;8365;51.030;4.696;2024-02-26T01:09:15;7.68;118.99
16505;HTU21D;8365;51.030;4.696;2024-02-26T01:11:48;7.79;118.99
16505;HTU21D;8365;51.030;4.696;2024-02-26T01:14:18;7.76;118.99
16505;HTU21D;8365;51.030;4.696;2024-02-26T01:16:49;7.73;118.99
16505;HTU21D;8365;51.030;4.696;2024-02-26T01:19:19;7.74;118.99
16505;HTU21D;8365;51.030;4.696;2024-02-26T01:21:50;7.64;118.99
16505;HTU21D;8365;51.030;4.696;2024-02-26T01:24:20;7.67;118.99
16505;HTU21D;8365;51.030;4.696;2024-02-26T01:26:53;7.59;118.99
16505;HTU21D;8365;51.030;4.696;2024-02-26T01:29:23;7.56;118.99
16505;HTU21D;8365;51.030;4.696;2024-02-26T01:31:54;7.56;118.99
16505;HTU21D;8365;51.030;4.696;2024-02-26T01:34:26;7.48;118.99
16505;HTU21D;8365;51.030;4.696;2024-02-26T01:36:56;7.50;118.99
16505;HTU21D;8365;51.030;4.696;2024-02-26T01:39:27;7.45;118.99
16505;HTU21D;8365;51.030;4.696;2024-02-26T01:41:59;7.40;118.99
16505;HTU21D;8365;51.030;4.696;2024-02-26T01:44:29;7.45;118.99
16505;HTU21D;8365;51.030;4.696;2024-02-26T01:47:00;7.38;118.99
16505;HTU21D;8365;51.030;4.696;2024-02-26T01:49:32;7.39;118.99
16505;HTU21D;8365;51.030;4.696;2024-02-26T01:52:03;7.41;118.99
16505;HTU21D;8365;51.030;4.696;2024-02-26T01:54:35;7.39;118.99
16505;HTU21D;8365;51.030;4.696;2024-02-26T01:57:08;7.45;118.99
16505;HTU21D;8365;51.030;4.696;2024-02-26T01:59:39;7.58;118.99
16505;HTU21D;8365;51.030;4.696;2024-02-26T02:02:11;7.55;118.99
16505;HTU21D;8365;51.030;4.696;2024-02-26T02:04:41;7.46;118.99
16505;HTU21D;8365;51.030;4.696;2024-02-26T02:07:12;7.47;118.99
16505;HTU21D;8365;51.030;4.696;2024-02-26T02:09:43;7.43;118.99
16505;HTU21D;8365;51.030;4.696;2024-02-26T02:12:18;7.47;118.99
16505;HTU21D;8365;51.030;4.696;2024-02-26T02:14:48;7.46;118.99
16505;HTU21D;8365;51.030;4.696;2024-02-26T02:17:19;7.31;118.99
16505;HTU21D;8365;51.030;4.696;2024-02-26T02:19:50;7.28;118.99
16505;HTU21D;8365;51.030;4.696;2024-02-26T02:22:21;7.30;118.99
16505;HTU21D;8365;51.030;4.696;2024-02-26T02:24:52;7.33;118.99
16505;HTU21D;8365;51.030;4.696;2024-02-26T02:27:23;7.25;118.99
16505;HTU21D;8365;51.030;4.696;2024-02-26T02:29:54;7.32;118.99
16505;HTU21D;8365;51.030;4.696;2024-02-26T02:32:25;7.33;118.99
16505;HTU21D;8365;51.030;4.696;2024-02-26T02:34:57;7.24;118.99
16505;HTU21D;8365;51.030;4.696;2024-02-26T02:37:27;7.25;118.99
16505;HTU21D;8365;51.030;4.696;2024-02-26T02:39:58;7.25;118.99
16505;HTU21D;8365;51.030;4.696;2024-02-26T02:42:32;7.18;118.99
16505;HTU21D;8365;51.030;4.696;2024-02-26T02:45:02;7.10;118.99
16505;HTU21D;8365;51.030;4.696;2024-02-26T02:47:36;7.16;118.99
16505;HTU21D;8365;51.030;4.696;2024-02-26T02:50:08;7.22;118.99
16505;HTU21D;8365;51.030;4.696;2024-02-26T02:52:38;7.22;118.99
16505;HTU21D;8365;51.030;4.696;2024-02-26T02:55:09;7.24;118.99
16505;HTU21D;8365;51.030;4.696;2024-02-26T02:57:39;7.15;118.99
16505;HTU21D;8365;51.030;4.696;2024-02-26T03:00:11;7.09;118.99
16505;HTU21D;8365;51.030;4.696;2024-02-26T03:02:42;7.17;118.99
16505;HTU21D;8365;51.030;4.696;2024-02-26T03:05:15;7.08;118.99
16505;HTU21D;8365;51.030;4.696;2024-02-26T03:07:45;7.04;118.99
16505;HTU21D;8365;51.030;4.696;2024-02-26T03:10:16;7.01;118.99
16505;HTU21D;8365;51.030;4.696;2024-02-26T03:12:46;6.97;118.99
16505;HTU21D;8365;51.030;4.696;2024-02-26T03:15:17;6.96;118.99
16505;HTU21D;8365;51.030;4.696;2024-02-26T03:17:48;6.96;118.99
16505;HTU21D;8365;51.030;4.696;2024-02-26T03:20:18;7.04;118.99
16505;HTU21D;8365;51.030;4.696;2024-02-26T03:22:49;7.05;118.99
16505;HTU21D;8365;51.030;4.696;2024-02-26T03:25:20;7.07;118.99
16505;HTU21D;8365;51.030;4.696;2024-02-26T03:27:50;7.00;118.99
16505;HTU21D;8365;51.030;4.696;2024-02-26T03:30:21;7.05;118.99
16505;HTU21D;8365;51.030;4.696;2024-02-26T03:32:51;6.95;118.99
16505;HTU21D;8365;51.030;4.696;2024-02-26T03:35:22;6.95;118.99
16505;HTU21D;8365;51.030;4.696;2024-02-26T03:37:54;7.05;118.99
16505;HTU21D;8365;51.030;4.696;2024-02-26T03:40:25;7.03;118.99
16505;HTU21D;8365;51.030;4.696;2024-02-26T03:42:55;6.88;118.99
16505;HTU21D;8365;51.030;4.696;2024-02-26T03:45:27;6.96;118.99
16505;HTU21D;8365;51.030;4.696;2024-02-26T03:47:58;6.95;118.99
16505;HTU21D;8365;51.030;4.696;2024-02-26T03:50:28;7.00;118.99
16505;HTU21D;8365;51.030;4.696;2024-02-26T03:52:59;6.95;118.99
16505;HTU21D;8365;51.030;4.696;2024-02-26T03:55:30;7.10;118.99
16505;HTU21D;8365;51.030;4.696;2024-02-26T03:58:00;6.98;118.99
16505;HTU21D;8365;51.030;4.696;2024-02-26T04:00:31;7.03;118.99
16505;HTU21D;8365;51.030;4.696;2024-02-26T04:03:01;7.05;118.99
16505;HTU21D;8365;51.030;4.696;2024-02-26T04:05:32;7.11;118.99
16505;HTU21D;8365;51.030;4.696;2024-02-26T04:08:07;7.00;118.99
16505;HTU21D;8365;51.030;4.696;2024-02-26T04:10:37;7.01;118.99
16505;HTU21D;8365;51.030;4.696;2024-02-26T04:13:09;7.03;118.99
16505;HTU21D;8365;51.030;4.696;2024-02-26T04:15:41;7.00;118.99
16505;HTU21D;8365;51.030;4.696;2024-02-26T04:18:14;7.03;118.99
16505;HTU21D;8365;51.030;4.696;2024-02-26T04:20:45;6.96;118.99
16505;HTU21D;8365;51.030;4.696;2024-02-26T04:23:15;7.10;118.99
16505;HTU21D;8365;51.030;4.696;2024-02-26T04:25:46;7.03;118.99
16505;HTU21D;8365;51.030;4.696;2024-02-26T04:28:17;7.12;118.99
16505;HTU21D;8365;51.030;4.696;2024-02-26T04:30:47;7.02;118.99
16505;HTU21D;8365;51.030;4.696;2024-02-26T04:33:18;6.99;118.99
16505;HTU21D;8365;51.030;4.696;2024-02-26T04:35:49;7.03;118.99
16505;HTU21D;8365;51.030;4.696;2024-02-26T04:38:19;6.97;118.99
16505;HTU21D;8365;51.030;4.696;2024-02-26T04:40:49;7.04;118.99
16505;HTU21D;8365;51.030;4.696;2024-02-26T04:43:20;7.11;118.99
16505;HTU21D;8365;51.030;4.696;2024-02-26T04:45:50;7.12;118.99
16505;HTU21D;8365;51.030;4.696;2024-02-26T04:48:21;7.11;118.99
16505;HTU21D;8365;51.030;4.696;2024-02-26T04:50:51;7.15;118.99
16505;HTU21D;8365;51.030;4.696;2024-02-26T04:53:22;7.04;118.99
16505;HTU21D;8365;51.030;4.696;2024-02-26T04:55:52;7.23;118.99
16505;HTU21D;8365;51.030;4.696;2024-02-26T04:58:23;7.26;118.99
16505;HTU21D;8365;51.030;4.696;2024-02-26T05:00:53;7.13;118.99
16505;HTU21D;8365;51.030;4.696;2024-02-26T05:03:24;7.20;118.99
16505;HTU21D;8365;51.030;4.696;2024-02-26T05:05:54;7.14;118.99
16505;HTU21D;8365;51.030;4.696;2024-02-26T05:08:25;7.15;118.99
16505;HTU21D;8365;51.030;4.696;2024-02-26T05:10:56;7.19;118.99
16505;HTU21D;8365;51.030;4.696;2024-02-26T05:13:30;7.16;118.99
16505;HTU21D;8365;51.030;4.696;2024-02-26T05:16:01;7.16;118.99
16505;HTU21D;8365;51.030;4.696;2024-02-26T05:18:31;7.11;118.99
16505;HTU21D;8365;51.030;4.696;2024-02-26T05:21:02;7.07;118.99
16505;HTU21D;8365;51.030;4.696;2024-02-26T05:23:36;7.00;118.99
16505;HTU21D;8365;51.030;4.696;2024-02-26T05:26:07;7.02;118.99
16505;HTU21D;8365;51.030;4.696;2024-02-26T05:28:37;7.03;118.99
16505;HTU21D;8365;51.030;4.696;2024-02-26T05:31:12;7.04;118.99
16505;HTU21D;8365;51.030;4.696;2024-02-26T05:33:43;7.04;118.99
16505;HTU21D;8365;51.030;4.696;2024-02-26T05:36:23;7.11;118.99
16505;HTU21D;8365;51.030;4.696;2024-02-26T05:38:53;7.12;118.99
16505;HTU21D;8365;51.030;4.696;2024-02-26T05:41:24;7.18;118.99
16505;HTU21D;8365;51.030;4.696;2024-02-26T05:43:56;7.16;118.99
16505;HTU21D;8365;51.030;4.696;2024-02-26T05:46:29;7.00;118.99
16505;HTU21D;8365;51.030;4.696;2024-02-26T05:49:00;6.98;118.99
16505;HTU21D;8365;51.030;4.696;2024-02-26T05:51:30;7.00;118.99
16505;HTU21D;8365;51.030;4.696;2024-02-26T05:54:00;6.90;118.99
16505;HTU21D;8365;51.030;4.696;2024-02-26T05:56:36;6.94;118.99
16505;HTU21D;8365;51.030;4.696;2024-02-26T05:59:09;6.89;118.99
16505;HTU21D;8365;51.030;4.696;2024-02-26T06:01:39;6.83;118.99
16505;HTU21D;8365;51.030;4.696;2024-02-26T06:04:10;6.72;118.99
16505;HTU21D;8365;51.030;4.696;2024-02-26T06:06:40;6.83;118.99
16505;HTU21D;8365;51.030;4.696;2024-02-26T06:09:11;6.80;118.99
16505;HTU21D;8365;51.030;4.696;2024-02-26T06:11:42;6.85;118.99
16505;HTU21D;8365;51.030;4.696;2024-02-26T06:14:12;6.90;118.99
16505;HTU21D;8365;51.030;4.696;2024-02-26T06:16:48;6.84;118.99
16505;HTU21D;8365;51.030;4.696;2024-02-26T06:19:18;6.83;118.99
16505;HTU21D;8365;51.030;4.696;2024-02-26T06:21:49;6.82;118.99
16505;HTU21D;8365;51.030;4.696;2024-02-26T06:24:20;6.75;118.99
16505;HTU21D;8365;51.030;4.696;2024-02-26T06:26:52;6.76;118.99
16505;HTU21D;8365;51.030;4.696;2024-02-26T06:29:22;6.75;118.99
16505;HTU21D;8365;51.030;4.696;2024-02-26T06:31:53;6.70;118.99
16505;HTU21D;8365;51.030;4.696;2024-02-26T06:34:23;6.61;118.99
16505;HTU21D;8365;51.030;4.696;2024-02-26T06:36:54;6.69;118.99
16505;HTU21D;8365;51.030;4.696;2024-02-26T06:39:24;6.63;118.99
16505;HTU21D;8365;51.030;4.696;2024-02-26T06:41:55;6.71;118.99
16505;HTU21D;8365;51.030;4.696;2024-02-26T06:44:30;6.76;118.99
16505;HTU21D;8365;51.030;4.696;2024-02-26T06:47:03;6.89;118.99
16505;HTU21D;8365;51.030;4.696;2024-02-26T06:49:34;6.85;118.99
16505;HTU21D;8365;51.030;4.696;2024-02-26T06:52:04;6.78;118.99
16505;HTU21D;8365;51.030;4.696;2024-02-26T06:54:36;6.78;118.99
16505;HTU21D;8365;51.030;4.696;2024-02-26T06:57:09;6.82;118.99
16505;HTU21D;8365;51.030;4.696;2024-02-26T06:59:39;6.84;118.99
16505;HTU21D;8365;51.030;4.696;2024-02-26T07:02:13;6.87;118.99
16505;HTU21D;8365;51.030;4.696;2024-02-26T07:04:44;6.86;118.99
16505;HTU21D;8365;51.030;4.696;2024-02-26T07:07:14;6.85;118.99
16505;HTU21D;8365;51.030;4.696;2024-02-26T07:09:45;6.76;118.99
16505;HTU21D;8365;51.030;4.696;2024-02-26T07:12:16;6.72;118.99
16505;HTU21D;8365;51.030;4.696;2024-02-26T07:14:46;6.78;118.99
16505;HTU21D;8365;51.030;4.696;2024-02-26T07:17:17;6.80;118.99
16505;HTU21D;8365;51.030;4.696;2024-02-26T07:19:47;6.81;118.99
16505;HTU21D;8365;51.030;4.696;2024-02-26T07:22:18;6.84;118.99
16505;HTU21D;8365;51.030;4.696;2024-02-26T07:24:48;6.83;118.99
16505;HTU21D;8365;51.030;4.696;2024-02-26T07:27:18;6.83;118.99
16505;HTU21D;8365;51.030;4.696;2024-02-26T07:29:51;6.84;118.99
16505;HTU21D;8365;51.030;4.696;2024-02-26T07:32:21;6.81;118.99
16505;HTU21D;8365;51.030;4.696;2024-02-26T07:34:52;6.81;118.99
16505;HTU21D;8365;51.030;4.696;2024-02-26T07:37:23;6.80;118.99
16505;HTU21D;8365;51.030;4.696;2024-02-26T07:39:53;6.71;118.99
16505;HTU21D;8365;51.030;4.696;2024-02-26T07:42:24;6.82;118.99
16505;HTU21D;8365;51.030;4.696;2024-02-26T07:44:55;6.84;118.99
16505;HTU21D;8365;51.030;4.696;2024-02-26T07:47:26;6.67;118.99
16505;HTU21D;8365;51.030;4.696;2024-02-26T07:49:56;6.93;118.99
16505;HTU21D;8365;51.030;4.696;2024-02-26T07:52:27;6.67;118.99
16505;HTU21D;8365;51.030;4.696;2024-02-26T07:55:00;6.82;118.99
16505;HTU21D;8365;51.030;4.696;2024-02-26T07:57:32;6.84;118.99
16505;HTU21D;8365;51.030;4.696;2024-02-26T08:00:05;6.94;118.99
16505;HTU21D;8365;51.030;4.696;2024-02-26T08:02:39;6.93;118.99
16505;HTU21D;8365;51.030;4.696;2024-02-26T08:05:10;6.87;118.99
16505;HTU21D;8365;51.030;4.696;2024-02-26T08:07:40;7.02;118.99
16505;HTU21D;8365;51.030;4.696;2024-02-26T08:10:10;6.90;118.99
16505;HTU21D;8365;51.030;4.696;2024-02-26T08:12:43;6.94;118.99
16505;HTU21D;8365;51.030;4.696;2024-02-26T08:15:18;6.89;118.99
16505;HTU21D;8365;51.030;4.696;2024-02-26T08:17:49;6.95;118.99
16505;HTU21D;8365;51.030;4.696;2024-02-26T08:20:19;6.98;118.99
16505;HTU21D;8365;51.030;4.696;2024-02-26T08:22:50;6.91;118.99
16505;HTU21D;8365;51.030;4.696;2024-02-26T08:25:23;6.97;118.99
16505;HTU21D;8365;51.030;4.696;2024-02-26T08:27:54;7.00;118.99
16505;HTU21D;8365;51.030;4.696;2024-02-26T08:30:27;7.01;118.99
16505;HTU21D;8365;51.030;4.696;2024-02-26T08:32:57;7.03;118.99
16505;HTU21D;8365;51.030;4.696;2024-02-26T08:35:28;6.94;118.99
16505;HTU21D;8365;51.030;4.696;2024-02-26T08:37:58;6.96;118.99
16505;HTU21D;8365;51.030;4.696;2024-02-26T08:40:29;6.93;118.99
16505;HTU21D;8365;51.030;4.696;2024-02-26T08:42:59;6.98;118.99
16505;HTU21D;8365;51.030;4.696;2024-02-26T08:45:30;6.95;118.99
16505;HTU21D;8365;51.030;4.696;2024-02-26T08:48:00;6.99;118.99
16505;HTU21D;8365;51.030;4.696;2024-02-26T08:50:33;6.89;118.99
16505;HTU21D;8365;51.030;4.696;2024-02-26T08:53:04;7.00;118.99
16505;HTU21D;8365;51.030;4.696;2024-02-26T08:55:34;7.00;118.99
16505;HTU21D;8365;51.030;4.696;2024-02-26T08:58:05;7.18;118.99
16505;HTU21D;8365;51.030;4.696;2024-02-26T09:00:35;7.08;118.99
16505;HTU21D;8365;51.030;4.696;2024-02-26T09:03:08;6.93;118.99
16505;HTU21D;8365;51.030;4.696;2024-02-26T09:05:38;6.98;118.99
16505;HTU21D;8365;51.030;4.696;2024-02-26T09:08:09;7.04;118.99
16505;HTU21D;8365;51.030;4.696;2024-02-26T09:10:39;6.91;118.99
16505;HTU21D;8365;51.030;4.696;2024-02-26T09:13:12;7.05;118.99
16505;HTU21D;8365;51.030;4.696;2024-02-26T09:15:43;7.04;118.99
16505;HTU21D;8365;51.030;4.696;2024-02-26T09:18:13;6.96;118.99
16505;HTU21D;8365;51.030;4.696;2024-02-26T09:20:45;6.95;118.99
16505;HTU21D;8365;51.030;4.696;2024-02-26T09:23:16;6.95;118.99
16505;HTU21D;8365;51.030;4.696;2024-02-26T09:25:46;6.82;118.99
16505;HTU21D;8365;51.030;4.696;2024-02-26T09:28:17;6.97;118.99
16505;HTU21D;8365;51.030;4.696;2024-02-26T09:30:47;7.07;118.99
16505;HTU21D;8365;51.030;4.696;2024-02-26T09:33:19;7.03;118.99
16505;HTU21D;8365;51.030;4.696;2024-02-26T09:35:49;7.04;118.99
16505;HTU21D;8365;51.030;4.696;2024-02-26T09:38:20;6.98;118.99
16505;HTU21D;8365;51.030;4.696;2024-02-26T09:40:50;7.11;118.99
16505;HTU21D;8365;51.030;4.696;2024-02-26T09:43:22;7.09;118.99
16505;HTU21D;8365;51.030;4.696;2024-02-26T09:45:55;7.12;118.99
16505;HTU21D;8365;51.030;4.696;2024-02-26T09:48:26;7.13;118.99
16505;HTU21D;8365;51.030;4.696;2024-02-26T09:50:56;7.11;118.99
16505;HTU21D;8365;51.030;4.696;2024-02-26T09:53:28;7.09;118.99
16505;HTU21D;8365;51.030;4.696;2024-02-26T09:55:59;7.00;118.99
16505;HTU21D;8365;51.030;4.696;2024-02-26T09:58:30;6.95;118.99
16505;HTU21D;8365;51.030;4.696;2024-02-26T10:01:02;6.93;118.99
16505;HTU21D;8365;51.030;4.696;2024-02-26T10:03:39;7.01;118.99
16505;HTU21D;8365;51.030;4.696;2024-02-26T10:06:11;7.15;118.99
16505;HTU21D;8365;51.030;4.696;2024-02-26T10:08:41;7.18;118.99
16505;HTU21D;8365;51.030;4.696;2024-02-26T10:11:14;7.14;118.99
16505;HTU21D;8365;51.030;4.696;2024-02-26T10:13:45;6.96;118.99
16505;HTU21D;8365;51.030;4.696;2024-02-26T10:16:16;7.04;118.99
16505;HTU21D;8365;51.030;4.696;2024-02-26T10:18:48;7.12;118.99
16505;HTU21D;8365;51.030;4.696;2024-02-26T10:21:22;7.09;118.99
16505;HTU21D;8365;51.030;4.696;2024-02-26T10:23:53;7.25;118.99
16505;HTU21D;8365;51.030;4.696;2024-02-26T10:26:24;7.19;118.99
16505;HTU21D;8365;51.030;4.696;2024-02-26T10:28:59;7.28;118.99
16505;HTU21D;8365;51.030;4.696;2024-02-26T10:31:30;6.83;118.99
16505;HTU21D;8365;51.030;4.696;2024-02-26T10:34:00;7.01;118.99
16505;HTU21D;8365;51.030;4.696;2024-02-26T10:36:36;6.95;118.99
16505;HTU21D;8365;51.030;4.696;2024-02-26T10:39:07;6.85;118.99
16505;HTU21D;8365;51.030;4.696;2024-02-26T10:41:38;6.68;118.99
16505;HTU21D;8365;51.030;4.696;2024-02-26T10:44:12;6.72;118.99
16505;HTU21D;8365;51.030;4.696;2024-02-26T10:46:43;6.73;118.99
16505;HTU21D;8365;51.030;4.696;2024-02-26T10:49:14;6.88;118.99
16505;HTU21D;8365;51.030;4.696;2024-02-26T10:51:55;6.79;118.99
16505;HTU21D;8365;51.030;4.696;2024-02-26T10:54:29;6.71;118.99
16505;HTU21D;8365;51.030;4.696;2024-02-26T10:57:01;6.71;118.99
16505;HTU21D;8365;51.030;4.696;2024-02-26T10:59:32;6.86;118.99
16505;HTU21D;8365;51.030;4.696;2024-02-26T11:02:03;6.76;118.99
16505;HTU21D;8365;51.030;4.696;2024-02-26T11:04:34;6.74;118.99
16505;HTU21D;8365;51.030;4.696;2024-02-26T11:07:08;6.69;118.99
16505;HTU21D;8365;51.030;4.696;2024-02-26T11:09:44;6.76;118.99
16505;HTU21D;8365;51.030;4.696;2024-02-26T11:12:17;6.83;118.99
16505;HTU21D;8365;51.030;4.696;2024-02-26T11:14:48;6.86;118.99
16505;HTU21D;8365;51.030;4.696;2024-02-26T11:17:22;6.76;118.99
16505;HTU21D;8365;51.030;4.696;2024-02-26T11:19:58;6.79;118.99
16505;HTU21D;8365;51.030;4.696;2024-02-26T11:22:28;6.86;118.99
16505;HTU21D;8365;51.030;4.696;2024-02-26T11:24:59;6.99;118.99
16505;HTU21D;8365;51.030;4.696;2024-02-26T11:27:37;6.85;118.99
16505;HTU21D;8365;51.030;4.696;2024-02-26T11:30:10;6.93;118.99
16505;HTU21D;8365;51.030;4.696;2024-02-26T11:32:48;6.87;118.99
16505;HTU21D;8365;51.030;4.696;2024-02-26T11:35:20;6.79;118.99
16505;HTU21D;8365;51.030;4.696;2024-02-26T11:37:54;6.73;118.99
16505;HTU21D;8365;51.030;4.696;2024-02-26T11:40:26;6.76;118.99
16505;HTU21D;8365;51.030;4.696;2024-02-26T11:42:57;6.87;118.99
16505;HTU21D;8365;51.030;4.696;2024-02-26T11:48:20;6.93;118.99
16505;HTU21D;8365;51.030;4.696;2024-02-26T11:50:54;6.85;118.99
16505;HTU21D;8365;51.030;4.696;2024-02-26T11:53:30;6.82;118.99
16505;HTU21D;8365;51.030;4.696;2024-02-26T11:58:53;7.02;118.99
16505;HTU21D;8365;51.030;4.696;2024-02-26T12:01:39;7.09;118.99
16505;HTU21D;8365;51.030;4.696;2024-02-26T12:04:23;6.99;118.99
16505;HTU21D;8365;51.030;4.696;2024-02-26T12:07:01;6.97;118.99
16505;HTU21D;8365;51.030;4.696;2024-02-26T12:12:09;7.15;118.99
16505;HTU21D;8365;51.030;4.696;2024-02-26T12:14:52;7.01;118.99
16505;HTU21D;8365;51.030;4.696;2024-02-26T12:17:24;6.83;118.99
16505;HTU21D;8365;51.030;4.696;2024-02-26T12:19:58;6.99;118.99
16505;HTU21D;8365;51.030;4.696;2024-02-26T12:22:43;6.98;118.99
16505;HTU21D;8365;51.030;4.696;2024-02-26T12:25:15;7.02;118.99
16505;HTU21D;8365;51.030;4.696;2024-02-26T12:27:48;6.88;118.99
16505;HTU21D;8365;51.030;4.696;2024-02-26T12:30:19;6.97;118.99
16505;HTU21D;8365;51.030;4.696;2024-02-26T12:32:50;6.94;118.99
16505;HTU21D;8365;51.030;4.696;2024-02-26T12:35:22;6.93;118.99
16505;HTU21D;8365;51.030;4.696;2024-02-26T12:37:53;6.75;118.99
16505;HTU21D;8365;51.030;4.696;2024-02-26T12:40:24;6.79;118.99
16505;HTU21D;8365;51.030;4.696;2024-02-26T12:42:55;6.88;118.99
16505;HTU21D;8365;51.030;4.696;2024-02-26T12:45:25;6.81;118.99
16505;HTU21D;8365;51.030;4.696;2024-02-26T12:47:56;6.91;118.99
16505;HTU21D;8365;51.030;4.696;2024-02-26T12:50:27;6.95;118.99
16505;HTU21D;8365;51.030;4.696;2024-02-26T12:52:58;6.83;118.99
16505;HTU21D;8365;51.030;4.696;2024-02-26T12:55:31;6.83;118.99
16505;HTU21D;8365;51.030;4.696;2024-02-26T12:58:05;6.74;118.99
16505;HTU21D;8365;51.030;4.696;2024-02-26T13:00:36;6.75;118.99
16505;HTU21D;8365;51.030;4.696;2024-02-26T13:03:07;6.87;118.99
16505;HTU21D;8365;51.030;4.696;2024-02-26T13:05:37;6.93;118.99
16505;HTU21D;8365;51.030;4.696;2024-02-26T13:08:08;6.95;118.99
16505;HTU21D;8365;51.030;4.696;2024-02-26T13:10:38;6.85;118.99
16505;HTU21D;8365;51.030;4.696;2024-02-26T13:13:09;6.87;118.99
16505;HTU21D;8365;51.030;4.696;2024-02-26T13:15:39;6.79;118.99
16505;HTU21D;8365;51.030;4.696;2024-02-26T13:18:11;6.93;118.99
16505;HTU21D;8365;51.030;4.696;2024-02-26T13:20:42;6.85;118.99
16505;HTU21D;8365;51.030;4.696;2024-02-26T13:23:13;6.91;118.99
16505;HTU21D;8365;51.030;4.696;2024-02-26T13:25:43;6.93;118.99
16505;HTU21D;8365;51.030;4.696;2024-02-26T13:28:18;6.95;118.99
16505;HTU21D;8365;51.030;4.696;2024-02-26T13:30:55;7.03;118.99
16505;HTU21D;8365;51.030;4.696;2024-02-26T13:33:30;7.02;118.99
16505;HTU21D;8365;51.030;4.696;2024-02-26T13:36:03;7.19;118.99
16505;HTU21D;8365;51.030;4.696;2024-02-26T13:38:33;7.10;118.99
16505;HTU21D;8365;51.030;4.696;2024-02-26T13:41:04;7.12;118.99
16505;HTU21D;8365;51.030;4.696;2024-02-26T13:43:34;7.16;118.99
16505;HTU21D;8365;51.030;4.696;2024-02-26T13:46:04;6.88;118.99
16505;HTU21D;8365;51.030;4.696;2024-02-26T13:48:35;6.99;118.99
16505;HTU21D;8365;51.030;4.696;2024-02-26T13:51:05;7.18;118.99
16505;HTU21D;8365;51.030;4.696;2024-02-26T13:53:38;7.12;118.99
16505;HTU21D;8365;51.030;4.696;2024-02-26T13:56:10;7.07;118.99
16505;HTU21D;8365;51.030;4.696;2024-02-26T13:58:40;7.05;118.99
16505;HTU21D;8365;51.030;4.696;2024-02-26T14:01:10;7.18;118.99
16505;HTU21D;8365;51.030;4.696;2024-02-26T14:03:41;7.29;118.99
16505;HTU21D;8365;51.030;4.696;2024-02-26T14:06:11;7.35;118.99
16505;HTU21D;8365;51.030;4.696;2024-02-26T14:08:42;7.28;118.99
16505;HTU21D;8365;51.030;4.696;2024-02-26T14:11:15;7.23;118.99
16505;HTU21D;8365;51.030;4.696;2024-02-26T14:13:45;7.35;118.99
16505;HTU21D;8365;51.030;4.696;2024-02-26T14:16:17;7.37;118.99
16505;HTU21D;8365;51.030;4.696;2024-02-26T14:18:50;7.38;118.99
16505;HTU21D;8365;51.030;4.696;2024-02-26T14:21:21;7.30;118.99
16505;HTU21D;8365;51.030;4.696;2024-02-26T14:23:51;7.20;118.99
16505;HTU21D;8365;51.030;4.696;2024-02-26T14:26:25;7.02;118.99
16505;HTU21D;8365;51.030;4.696;2024-02-26T14:28:55;7.13;118.99
16505;HTU21D;8365;51.030;4.696;2024-02-26T14:31:26;7.07;118.99
16505;HTU21D;8365;51.030;4.696;2024-02-26T14:33:56;7.15;118.99
16505;HTU21D;8365;51.030;4.696;2024-02-26T14:36:27;7.10;118.99
16505;HTU21D;8365;51.030;4.696;2024-02-26T14:38:58;7.05;118.99
16505;HTU21D;8365;51.030;4.696;2024-02-26T14:41:28;7.10;118.99
16505;HTU21D;8365;51.030;4.696;2024-02-26T14:43:58;7.16;118.99
16505;HTU21D;8365;51.030;4.696;2024-02-26T14:46:29;7.01;118.99
16505;HTU21D;8365;51.030;4.696;2024-02-26T14:49:04;7.02;118.99
16505;HTU21D;8365;51.030;4.696;2024-02-26T14:51:35;7.01;118.99
16505;HTU21D;8365;51.030;4.696;2024-02-26T14:54:06;6.94;118.99
16505;HTU21D;8365;51.030;4.696;2024-02-26T14:56:36;7.11;118.99
16505;HTU21D;8365;51.030;4.696;2024-02-26T14:59:07;7.01;118.99
16505;HTU21D;8365;51.030;4.696;2024-02-26T15:01:37;7.04;118.99
16505;HTU21D;8365;51.030;4.696;2024-02-26T15:04:08;7.08;118.99
16505;HTU21D;8365;51.030;4.696;2024-02-26T15:06:39;7.09;118.99
16505;HTU21D;8365;51.030;4.696;2024-02-26T15:09:09;7.15;118.99
16505;HTU21D;8365;51.030;4.696;2024-02-26T15:11:40;7.09;118.99
16505;HTU21D;8365;51.030;4.696;2024-02-26T15:14:11;7.17;118.99
16505;HTU21D;8365;51.030;4.696;2024-02-26T15:16:41;7.08;118.99
16505;HTU21D;8365;51.030;4.696;2024-02-26T15:19:11;7.10;118.99
16505;HTU21D;8365;51.030;4.696;2024-02-26T15:21:45;7.04;118.99
16505;HTU21D;8365;51.030;4.696;2024-02-26T15:24:16;7.09;118.99
16505;HTU21D;8365;51.030;4.696;2024-02-26T15:26:47;6.99;118.99
16505;HTU21D;8365;51.030;4.696;2024-02-26T15:29:18;6.93;118.99
16505;HTU21D;8365;51.030;4.696;2024-02-26T15:31:48;7.04;118.99
16505;HTU21D;8365;51.030;4.696;2024-02-26T15:34:19;7.03;118.99
16505;HTU21D;8365;51.030;4.696;2024-02-26T15:36:51;7.05;118.99
16505;HTU21D;8365;51.030;4.696;2024-02-26T15:39:22;7.08;118.99
16505;HTU21D;8365;51.030;4.696;2024-02-26T15:41:56;7.00;118.99
16505;HTU21D;8365;51.030;4.696;2024-02-26T15:44:27;7.02;118.99
16505;HTU21D;8365;51.030;4.696;2024-02-26T15:46:58;7.10;118.99
16505;HTU21D;8365;51.030;4.696;2024-02-26T15:49:29;6.99;118.99
16505;HTU21D;8365;51.030;4.696;2024-02-26T15:52:02;7.16;118.99
16505;HTU21D;8365;51.030;4.696;2024-02-26T15:54:38;7.10;118.99
16505;HTU21D;8365;51.030;4.696;2024-02-26T15:57:13;7.05;118.99
16505;HTU21D;8365;51.030;4.696;2024-02-26T15:59:47;6.98;118.99
16505;HTU21D;8365;51.030;4.696;2024-02-26T16:02:20;6.93;118.99
16505;HTU21D;8365;51.030;4.696;2024-02-26T16:04:51;7.02;118.99